Time,TemperatureF,DewpointF,PressureIn,WindDirection,WindDirectionDegrees,WindSpeedMPH,WindSpeedGustMPH,Humidity,HourlyPrecipIn,Conditions,Clouds,dailyrainin,SoftwareType,DateUTC
2013-07-28 00:09:00,60.6,57.0,29.48,SE,135,2.0,6.0,88,0.00,CLR,CLR,0.00,WeatherDisplay:10.37,2013-07-27 23:09:00,
2013-07-28 00:19:00,60.4,56.9,29.48,SE,135,2.0,5.0,88,0.00,CLR,CLR,0.00,WeatherDisplay:10.37,2013-07-27 23:19:00,
2013-07-28 00:29:00,60.4,56.9,29.48,SE,139,3.0,6.0,88,0.00,CLR,CLR,0.00,WeatherDisplay:10.37,2013-07-27 23:29:00,
2013-07-28 00:39:00,60.4,56.9,29.47,SE,146,5.0,7.0,88,0.00,CLR,CLR,0.00,WeatherDisplay:10.37,2013-07-27 23:39:00,
2013-07-28 00:49:00,60.3,56.7,29.47,SE,139,6.0,9.0,88,0.00,CLR,CLR,0.00,WeatherDisplay:10.37,2013-07-27 23:49:00,
2013-07-28 00:59:00,60.3,56.7,29.47,SE,142,7.0,8.0,88,0.00,CLR,CLR,0.00,WeatherDisplay:10.37,2013-07-27 23:59:00,
2013-07-28 01:09:00,60.1,56.5,29.48,South,171,6.0,10.0,88,0.00,CLR,CLR,0.00,WeatherDisplay:10.37,2013-07-28 00:09:00,
2013-07-28 01:19:00,60.0,56.5,29.47,SSE,154,3.0,8.0,88,0.00,CLR,CLR,0.00,WeatherDisplay:10.37,2013-07-28 00:19:00,
2013-07-28 01:29:00,59.9,56.3,29.47,SE,138,2.0,7.0,88,0.00,CLR,CLR,0.00,WeatherDisplay:10.37,2013-07-28 00:29:00,
2013-07-28 01:39:00,59.9,56.6,29.47,SE,143,3.0,6.0,89,0.00,CLR,CLR,0.00,WeatherDisplay:10.37,2013-07-28 00:39:00,
2013-07-28 01:49:00,59.7,56.5,29.47,SE,143,3.0,6.0,89,0.00,CLR,CLR,0.00,WeatherDisplay:10.37,2013-07-28 00:49:00,
2013-07-28 01:59:00,59.5,56.3,29.47,SSE,166,3.0,7.0,89,0.00,CLR,CLR,0.00,WeatherDisplay:10.37,2013-07-28 00:59:00,
2013-07-28 02:09:00,59.4,56.4,29.47,SE,135,3.0,6.0,90,0.00,CLR,CLR,0.00,WeatherDisplay:10.37,2013-07-28 01:09:00,
2013-07-28 02:19:00,59.4,56.4,29.47,SE,128,3.0,6.0,90,0.00,CLR,CLR,0.00,WeatherDisplay:10.37,2013-07-28 01:19:00,
2013-07-28 02:29:00,59.2,56.2,29.47,SE,135,5.0,9.0,90,0.00,CLR,CLR,0.00,WeatherDisplay:10.37,2013-07-28 01:29:00,
2013-07-28 02:39:00,59.2,56.6,29.46,SE,132,5.0,9.0,91,0.00,CLR,CLR,0.00,WeatherDisplay:10.37,2013-07-28 01:39:00,
2013-07-28 02:49:00,59.2,56.6,29.46,SE,133,5.0,8.0,91,0.00,CLR,CLR,0.00,WeatherDisplay:10.37,2013-07-28 01:49:00,
2013-07-28 02:59:00,59.2,56.6,29.46,SE,138,6.0,8.0,91,0.00,CLR,CLR,0.00,WeatherDisplay:10.37,2013-07-28 01:59:00,
2013-07-28 03:09:00,59.3,57.0,29.46,SE,146,5.0,8.0,92,0.00,CLR,CLR,0.00,WeatherDisplay:10.37,2013-07-28 02:09:00,
2013-07-28 03:19:00,59.2,56.6,29.45,SE,137,2.0,7.0,91,0.00,CLR,CLR,0.00,WeatherDisplay:10.37,2013-07-28 02:19:00,
2013-07-28 03:29:00,59.0,56.7,29.45,SE,141,3.0,6.0,92,0.00,CLR,CLR,0.00,WeatherDisplay:10.37,2013-07-28 02:29:00,
2013-07-28 03:39:00,58.8,56.8,29.45,SE,132,3.0,7.0,93,0.00,CLR,CLR,0.00,WeatherDisplay:10.37,2013-07-28 02:39:00,
2013-07-28 03:49:00,58.8,57.1,29.45,SE,144,5.0,7.0,94,0.00,CLR,CLR,0.00,WeatherDisplay:10.37,2013-07-28 02:49:00,
2013-07-28 03:59:00,58.8,57.1,29.44,SE,130,3.0,7.0,94,0.00,CLR,CLR,0.00,WeatherDisplay:10.37,2013-07-28 02:59:00,
2013-07-28 04:09:00,58.6,56.9,29.44,SE,133,3.0,6.0,94,0.00,CLR,CLR,0.00,WeatherDisplay:10.37,2013-07-28 03:09:00,
2013-07-28 04:19:00,58.6,56.8,29.44,SE,135,3.0,7.0,94,0.00,CLR,CLR,0.00,WeatherDisplay:10.37,2013-07-28 03:19:00,
2013-07-28 04:29:00,58.3,56.6,29.44,SE,131,3.0,6.0,94,0.00,CLR,CLR,0.00,WeatherDisplay:10.37,2013-07-28 03:29:00,
2013-07-28 04:39:00,58.3,56.6,29.44,SE,142,5.0,8.0,94,0.00,CLR,CLR,0.00,WeatherDisplay:10.37,2013-07-28 03:39:00,
2013-07-28 04:49:00,58.1,56.4,29.44,SE,125,3.0,8.0,94,0.00,CLR,CLR,0.00,WeatherDisplay:10.37,2013-07-28 03:49:00,
2013-07-28 04:59:00,57.6,55.8,29.44,ESE,116,3.0,6.0,94,0.00,CLR,CLR,0.00,WeatherDisplay:10.37,2013-07-28 03:59:00,
2013-07-28 05:09:00,57.9,56.5,29.43,SE,145,7.0,10.0,95,0.00,CLR,CLR,0.00,WeatherDisplay:10.37,2013-07-28 04:09:00,
2013-07-28 05:19:00,57.9,56.5,29.44,SE,136,7.0,10.0,95,0.00,CLR,CLR,0.00,WeatherDisplay:10.37,2013-07-28 04:19:00,
2013-07-28 05:29:00,58.1,56.7,29.43,SSE,155,9.0,13.0,95,0.00,CLR,CLR,0.00,WeatherDisplay:10.37,2013-07-28 04:29:00,
2013-07-28 05:39:00,58.3,56.9,29.43,SSE,166,6.0,12.0,95,0.00,CLR,CLR,0.00,WeatherDisplay:10.37,2013-07-28 04:39:00,
2013-07-28 05:49:00,57.9,56.5,29.44,SSE,152,3.0,8.0,95,0.00,CLR,CLR,0.00,WeatherDisplay:10.37,2013-07-28 04:49:00,
2013-07-28 05:59:00,58.2,56.7,29.44,SSE,151,8.0,11.0,95,0.00,CLR,CLR,0.00,WeatherDisplay:10.37,2013-07-28 04:59:00,
2013-07-28 06:09:00,58.6,57.2,29.44,SSE,164,9.0,14.0,95,0.00,CLR,CLR,0.00,WeatherDisplay:10.37,2013-07-28 05:09:00,
2013-07-28 06:19:00,58.8,57.4,29.44,SSE,164,8.0,13.0,95,0.00,CLR,CLR,0.00,WeatherDisplay:10.37,2013-07-28 05:19:00,
2013-07-28 06:29:00,59.4,57.3,29.43,South,177,12.0,15.0,93,0.00,CLR,CLR,0.00,WeatherDisplay:10.37,2013-07-28 05:29:00,
2013-07-28 06:39:00,59.2,57.2,29.44,South,169,8.0,13.0,93,0.00,CLR,CLR,0.00,WeatherDisplay:10.37,2013-07-28 05:39:00,
2013-07-28 06:49:00,59.5,57.2,29.43,SSE,150,7.0,11.0,92,0.00,CLR,CLR,0.00,WeatherDisplay:10.37,2013-07-28 05:49:00,
2013-07-28 06:59:00,59.5,56.9,29.43,South,169,9.0,13.0,91,0.00,CLR,CLR,0.00,WeatherDisplay:10.37,2013-07-28 05:59:00,
2013-07-28 07:09:00,60.1,57.4,29.43,South,173,10.0,14.0,91,0.00,CLR,CLR,0.00,WeatherDisplay:10.37,2013-07-28 06:09:00,
2013-07-28 07:19:00,60.1,56.8,29.43,South,180,9.0,14.0,89,0.00,CLR,CLR,0.00,WeatherDisplay:10.37,2013-07-28 06:19:00,
2013-07-28 07:29:00,60.8,57.2,29.43,South,172,8.0,12.0,88,0.00,CLR,CLR,0.00,WeatherDisplay:10.37,2013-07-28 06:29:00,
2013-07-28 07:39:00,60.8,56.9,29.43,SSE,159,9.0,12.0,87,0.00,CLR,CLR,0.00,WeatherDisplay:10.37,2013-07-28 06:39:00,
2013-07-28 07:49:00,60.4,56.9,29.43,SSE,154,9.0,13.0,88,0.00,CLR,CLR,0.00,WeatherDisplay:10.37,2013-07-28 06:49:00,
2013-07-28 07:59:00,61.3,57.4,29.43,SSE,155,8.0,11.0,87,0.00,CLR,CLR,0.00,WeatherDisplay:10.37,2013-07-28 06:59:00,
2013-07-28 08:09:00,62.1,57.6,29.43,SSE,155,10.0,13.0,85,0.00,CLR,CLR,0.00,WeatherDisplay:10.37,2013-07-28 07:09:00,
2013-07-28 08:19:00,61.7,56.8,29.43,SSE,157,8.0,13.0,84,0.00,CLR,CLR,0.00,WeatherDisplay:10.37,2013-07-28 07:19:00,
2013-07-28 08:29:00,61.2,56.7,29.43,South,173,7.0,11.0,85,0.00,CLR,CLR,0.00,WeatherDisplay:10.37,2013-07-28 07:29:00,
2013-07-28 08:39:00,61.2,56.9,29.43,SSE,160,8.0,10.0,86,0.00,CLR,CLR,0.00,WeatherDisplay:10.37,2013-07-28 07:39:00,
2013-07-28 08:49:00,62.1,57.5,29.44,SSE,154,6.0,10.0,85,0.00,CLR,CLR,0.00,WeatherDisplay:10.37,2013-07-28 07:49:00,
2013-07-28 08:59:00,63.5,58.2,29.43,South,169,7.0,9.0,83,0.00,CLR,CLR,0.00,WeatherDisplay:10.37,2013-07-28 07:59:00,
2013-07-28 09:09:00,64.0,58.4,29.43,SSE,167,6.0,13.0,82,0.00,CLR,CLR,0.00,WeatherDisplay:10.37,2013-07-28 08:09:00,
2013-07-28 09:19:00,64.6,59.3,29.43,South,175,7.0,10.0,83,0.00,CLR,CLR,0.00,WeatherDisplay:10.37,2013-07-28 08:19:00,
2013-07-28 09:29:00,64.6,59.0,29.43,SSE,161,8.0,14.0,82,0.00,CLR,CLR,0.00,WeatherDisplay:10.37,2013-07-28 08:29:00,
2013-07-28 09:39:00,63.9,57.9,29.43,South,176,14.0,16.0,81,0.00,CLR,CLR,0.00,WeatherDisplay:10.37,2013-07-28 08:39:00,
2013-07-28 09:49:00,65.4,59.0,29.43,South,170,12.0,17.0,80,0.00,CLR,CLR,0.00,WeatherDisplay:10.37,2013-07-28 08:49:00,
2013-07-28 09:59:00,66.0,58.6,29.43,South,180,13.0,20.0,77,0.00,CLR,CLR,0.00,WeatherDisplay:10.37,2013-07-28 08:59:00,
2013-07-28 10:09:00,66.2,58.4,29.42,South,178,13.0,20.0,76,0.00,CLR,CLR,0.00,WeatherDisplay:10.37,2013-07-28 09:09:00,
2013-07-28 10:19:00,66.7,58.5,29.42,South,183,13.0,20.0,75,0.00,CLR,CLR,0.00,WeatherDisplay:10.37,2013-07-28 09:19:00,
2013-07-28 10:29:00,66.9,58.7,29.43,SSW,192,13.0,20.0,75,0.00,CLR,CLR,0.00,WeatherDisplay:10.37,2013-07-28 09:29:00,
2013-07-28 10:39:00,66.2,58.1,29.43,SSW,193,14.0,18.0,75,0.00,CLR,CLR,0.00,WeatherDisplay:10.37,2013-07-28 09:39:00,
2013-07-28 10:49:00,67.4,59.2,29.42,South,190,14.0,18.0,75,0.00,CLR,CLR,0.00,WeatherDisplay:10.37,2013-07-28 09:49:00,
2013-07-28 10:59:00,68.0,59.0,29.42,South,181,12.0,17.0,73,0.00,CLR,CLR,0.00,WeatherDisplay:10.37,2013-07-28 09:59:00,
2013-07-28 11:09:00,68.5,58.8,29.42,South,183,15.0,20.0,71,0.00,CLR,CLR,0.00,WeatherDisplay:10.37,2013-07-28 10:09:00,
2013-07-28 11:19:00,68.8,58.2,29.42,South,169,12.0,20.0,69,0.00,CLR,CLR,0.00,WeatherDisplay:10.37,2013-07-28 10:19:00,
2013-07-28 11:29:00,68.8,58.6,29.42,SSW,192,15.0,18.0,70,0.00,CLR,CLR,0.00,WeatherDisplay:10.37,2013-07-28 10:29:00,
2013-07-28 11:39:00,70.2,58.3,29.42,South,183,16.0,18.0,66,0.00,CLR,CLR,0.00,WeatherDisplay:10.37,2013-07-28 10:39:00,
2013-07-28 11:49:00,69.6,57.3,29.42,South,187,12.0,18.0,65,0.00,CLR,CLR,0.00,WeatherDisplay:10.37,2013-07-28 10:49:00,
2013-07-28 11:59:00,70.1,57.3,29.42,South,190,9.0,15.0,64,0.00,CLR,CLR,0.00,WeatherDisplay:10.37,2013-07-28 10:59:00,
2013-07-28 12:09:00,69.1,57.7,29.42,SSW,209,6.0,14.0,67,0.00,CLR,CLR,0.00,WeatherDisplay:10.37,2013-07-28 11:09:00,
2013-07-28 12:19:00,68.7,57.7,29.42,South,188,7.0,11.0,68,0.00,CLR,CLR,0.00,WeatherDisplay:10.37,2013-07-28 11:19:00,
2013-07-28 12:29:00,70.9,57.7,29.41,South,182,6.0,11.0,63,0.00,CLR,CLR,0.00,WeatherDisplay:10.37,2013-07-28 11:29:00,
2013-07-28 12:39:00,70.2,56.5,29.42,SSW,207,7.0,11.0,62,0.00,CLR,CLR,0.00,WeatherDisplay:10.37,2013-07-28 11:39:00,
2013-07-28 12:49:00,70.7,57.5,29.41,West,267,5.0,11.0,63,0.00,CLR,CLR,0.00,WeatherDisplay:10.37,2013-07-28 11:49:00,
2013-07-28 12:59:00,70.2,57.0,29.41,West,264,5.0,11.0,63,0.00,CLR,CLR,0.00,WeatherDisplay:10.37,2013-07-28 11:59:00,
2013-07-28 13:09:00,70.0,57.7,29.41,WNW,283,6.0,11.0,65,0.00,CLR,CLR,0.00,WeatherDisplay:10.37,2013-07-28 12:09:00,
2013-07-28 13:19:00,70.5,58.6,29.41,WNW,284,7.0,10.0,66,0.00,CLR,CLR,0.00,WeatherDisplay:10.37,2013-07-28 12:19:00,
2013-07-28 13:29:00,69.8,57.9,29.41,West,267,7.0,11.0,66,0.00,CLR,CLR,0.00,WeatherDisplay:10.37,2013-07-28 12:29:00,
2013-07-28 13:39:00,69.7,57.4,29.40,WNW,283,8.0,12.0,65,0.00,CLR,CLR,0.00,WeatherDisplay:10.37,2013-07-28 12:39:00,
2013-07-28 13:49:00,70.8,59.3,29.41,West,280,8.0,13.0,67,0.00,CLR,CLR,0.00,WeatherDisplay:10.37,2013-07-28 12:49:00,
2013-07-28 13:59:00,68.8,57.4,29.41,West,269,8.0,13.0,67,0.00,CLR,CLR,0.00,WeatherDisplay:10.37,2013-07-28 12:59:00,
2013-07-28 14:09:00,68.2,57.6,29.40,West,277,9.0,15.0,69,0.00,CLR,CLR,0.00,WeatherDisplay:10.37,2013-07-28 13:09:00,
2013-07-28 14:19:00,67.1,56.6,29.40,WNW,290,8.0,14.0,69,0.00,CLR,CLR,0.00,WeatherDisplay:10.37,2013-07-28 13:19:00,
2013-07-28 14:29:00,67.5,56.1,29.41,NW,305,5.0,12.0,67,0.00,CLR,CLR,0.00,WeatherDisplay:10.37,2013-07-28 13:29:00,
2013-07-28 14:39:00,66.9,55.6,29.41,West,269,6.0,13.0,67,0.00,CLR,CLR,0.00,WeatherDisplay:10.37,2013-07-28 13:39:00,
2013-07-28 14:49:00,65.6,55.9,29.43,SW,229,16.0,20.0,71,0.01,RA,RA,0.01,WeatherDisplay:10.37,2013-07-28 13:49:00,
2013-07-28 14:59:00,62.6,56.6,29.43,SSW,208,5.0,16.0,81,0.01,RA,RA,0.02,WeatherDisplay:10.37,2013-07-28 13:59:00,
2013-07-28 15:09:00,62.4,57.5,29.43,South,176,2.0,6.0,84,0.01,RA,RA,0.04,WeatherDisplay:10.37,2013-07-28 14:09:00,
2013-07-28 15:19:00,62.2,57.3,29.42,SSW,209,1.0,3.0,84,0.00,,,0.04,WeatherDisplay:10.37,2013-07-28 14:19:00,
2013-07-28 15:29:00,62.6,57.4,29.42,WSW,237,1.0,2.0,83,0.00,CLR,CLR,0.04,WeatherDisplay:10.37,2013-07-28 14:29:00,
2013-07-28 15:39:00,63.1,57.8,29.43,SSW,206,1.0,2.0,83,0.01,RA,RA,0.05,WeatherDisplay:10.37,2013-07-28 14:39:00,
2013-07-28 15:49:00,63.7,58.8,29.43,SE,137,2.0,4.0,84,0.00,CLR,CLR,0.05,WeatherDisplay:10.37,2013-07-28 14:49:00,
2013-07-28 15:59:00,62.8,57.9,29.43,SE,124,3.0,11.0,84,0.00,CLR,CLR,0.05,WeatherDisplay:10.37,2013-07-28 14:59:00,
2013-07-28 16:09:00,63.5,58.2,29.42,SE,142,1.0,8.0,83,0.00,CLR,CLR,0.05,WeatherDisplay:10.37,2013-07-28 15:09:00,
2013-07-28 16:19:00,63.3,58.1,29.42,SE,139,2.0,6.0,83,0.00,CLR,CLR,0.05,WeatherDisplay:10.37,2013-07-28 15:19:00,
2013-07-28 16:29:00,63.7,58.4,29.41,SE,145,1.0,3.0,83,0.00,CLR,CLR,0.05,WeatherDisplay:10.37,2013-07-28 15:29:00,
2013-07-28 16:39:00,64.6,59.3,29.41,SSE,155,2.0,4.0,83,0.00,CLR,CLR,0.05,WeatherDisplay:10.37,2013-07-28 15:39:00,
2013-07-28 16:49:00,64.9,59.9,29.41,South,182,5.0,8.0,84,0.00,CLR,CLR,0.05,WeatherDisplay:10.37,2013-07-28 15:49:00,
2013-07-28 16:59:00,64.4,58.1,29.41,South,187,7.0,9.0,80,0.00,CLR,CLR,0.05,WeatherDisplay:10.37,2013-07-28 15:59:00,
2013-07-28 17:09:00,64.4,58.1,29.41,SSW,198,5.0,10.0,80,0.00,CLR,CLR,0.05,WeatherDisplay:10.37,2013-07-28 16:09:00,
2013-07-28 17:19:00,64.6,58.3,29.42,SSW,208,5.0,6.0,80,0.00,CLR,CLR,0.05,WeatherDisplay:10.37,2013-07-28 16:19:00,
2013-07-28 17:29:00,64.6,58.3,29.42,SSW,196,6.0,8.0,80,0.00,CLR,CLR,0.05,WeatherDisplay:10.37,2013-07-28 16:29:00,
2013-07-28 17:39:00,64.6,57.9,29.42,SW,218,6.0,8.0,79,0.00,CLR,CLR,0.05,WeatherDisplay:10.37,2013-07-28 16:39:00,
2013-07-28 17:49:00,64.6,57.9,29.42,SSW,208,5.0,9.0,79,0.00,CLR,CLR,0.05,WeatherDisplay:10.37,2013-07-28 16:49:00,
2013-07-28 17:59:00,64.8,58.1,29.42,SSW,202,5.0,7.0,79,0.00,CLR,CLR,0.05,WeatherDisplay:10.37,2013-07-28 16:59:00,
2013-07-28 18:09:00,65.1,58.4,29.42,SSW,199,7.0,8.0,79,0.00,CLR,CLR,0.05,WeatherDisplay:10.37,2013-07-28 17:09:00,
2013-07-28 18:19:00,65.8,58.0,29.42,SSW,198,7.0,11.0,76,0.00,CLR,CLR,0.05,WeatherDisplay:10.37,2013-07-28 17:19:00,
2013-07-28 18:29:00,68.4,57.8,29.42,South,190,7.0,13.0,69,0.00,CLR,CLR,0.05,WeatherDisplay:10.37,2013-07-28 17:29:00,
2013-07-28 18:39:00,68.9,57.9,29.42,SSW,211,8.0,12.0,68,0.00,CLR,CLR,0.05,WeatherDisplay:10.37,2013-07-28 17:39:00,
2013-07-28 18:49:00,67.9,56.9,29.42,WSW,239,8.0,11.0,68,0.00,CLR,CLR,0.05,WeatherDisplay:10.37,2013-07-28 17:49:00,
2013-07-28 18:59:00,68.2,56.8,29.42,West,264,6.0,11.0,67,0.00,CLR,CLR,0.05,WeatherDisplay:10.37,2013-07-28 17:59:00,
2013-07-28 19:09:00,67.6,57.1,29.43,West,262,5.0,8.0,69,0.00,CLR,CLR,0.05,WeatherDisplay:10.37,2013-07-28 18:09:00,
2013-07-28 19:19:00,68.0,57.0,29.43,West,268,5.0,8.0,68,0.01,RA,RA,0.06,WeatherDisplay:10.37,2013-07-28 18:19:00,
2013-07-28 19:29:00,66.7,56.6,29.43,West,269,5.0,8.0,70,0.00,,,0.06,WeatherDisplay:10.37,2013-07-28 18:29:00,
2013-07-28 19:39:00,66.7,56.6,29.43,West,265,7.0,10.0,70,0.00,CLR,CLR,0.06,WeatherDisplay:10.37,2013-07-28 18:39:00,
2013-07-28 19:49:00,66.4,57.8,29.43,West,265,9.0,13.0,74,0.00,CLR,CLR,0.06,WeatherDisplay:10.37,2013-07-28 18:49:00,
2013-07-28 19:59:00,66.2,57.7,29.43,West,267,10.0,14.0,74,0.00,CLR,CLR,0.06,WeatherDisplay:10.37,2013-07-28 18:59:00,
2013-07-28 20:09:00,66.2,58.0,29.43,West,274,9.0,14.0,75,0.00,CLR,CLR,0.06,WeatherDisplay:10.37,2013-07-28 19:09:00,
2013-07-28 20:19:00,66.0,58.6,29.43,West,261,7.0,13.0,77,0.00,CLR,CLR,0.06,WeatherDisplay:10.37,2013-07-28 19:19:00,
2013-07-28 20:29:00,66.0,58.9,29.43,West,266,6.0,12.0,78,0.00,CLR,CLR,0.06,WeatherDisplay:10.37,2013-07-28 19:29:00,
2013-07-28 20:39:00,65.9,58.8,29.44,West,261,8.0,13.0,78,0.00,CLR,CLR,0.06,WeatherDisplay:10.37,2013-07-28 19:39:00,
2013-07-28 20:49:00,65.8,58.8,29.44,WSW,252,8.0,14.0,78,0.00,CLR,CLR,0.06,WeatherDisplay:10.37,2013-07-28 19:49:00,
2013-07-28 20:59:00,65.5,58.4,29.45,SW,232,9.0,13.0,78,0.00,CLR,CLR,0.06,WeatherDisplay:10.37,2013-07-28 19:59:00,
2013-07-28 21:09:00,65.1,58.8,29.44,WSW,245,10.0,14.0,80,0.00,CLR,CLR,0.06,WeatherDisplay:10.37,2013-07-28 20:09:00,
2013-07-28 21:19:00,64.9,58.6,29.45,SW,231,10.0,14.0,80,0.00,CLR,CLR,0.06,WeatherDisplay:10.37,2013-07-28 20:19:00,
2013-07-28 21:29:00,64.9,58.3,29.45,SW,226,8.0,14.0,79,0.00,CLR,CLR,0.06,WeatherDisplay:10.37,2013-07-28 20:29:00,
2013-07-28 21:39:00,64.9,59.0,29.45,SW,220,10.0,13.0,81,0.00,CLR,CLR,0.06,WeatherDisplay:10.37,2013-07-28 20:39:00,
2013-07-28 21:49:00,64.9,59.0,29.45,SW,223,6.0,13.0,81,0.00,CLR,CLR,0.06,WeatherDisplay:10.37,2013-07-28 20:49:00,
2013-07-28 21:59:00,64.9,59.0,29.46,SW,221,7.0,11.0,81,0.00,CLR,CLR,0.06,WeatherDisplay:10.37,2013-07-28 20:59:00,
2013-07-28 22:09:00,64.9,58.6,29.46,SW,232,8.0,13.0,80,0.00,CLR,CLR,0.06,WeatherDisplay:10.37,2013-07-28 21:09:00,
2013-07-28 22:19:00,64.9,59.0,29.46,SW,219,9.0,15.0,81,0.00,CLR,CLR,0.06,WeatherDisplay:10.37,2013-07-28 21:19:00,
2013-07-28 22:29:00,64.9,58.6,29.47,SW,224,8.0,14.0,80,0.00,CLR,CLR,0.06,WeatherDisplay:10.37,2013-07-28 21:29:00,
2013-07-28 22:39:00,64.8,59.1,29.46,SW,223,8.0,12.0,82,0.00,CLR,CLR,0.06,WeatherDisplay:10.37,2013-07-28 21:39:00,
2013-07-28 22:49:00,64.6,59.0,29.47,SSW,203,10.0,13.0,82,0.00,CLR,CLR,0.06,WeatherDisplay:10.37,2013-07-28 21:49:00,
2013-07-28 22:59:00,64.3,59.0,29.47,SSW,199,7.0,13.0,83,0.00,CLR,CLR,0.06,WeatherDisplay:10.37,2013-07-28 21:59:00,
2013-07-28 23:09:00,64.0,58.8,29.47,SSW,212,9.0,12.0,83,0.00,CLR,CLR,0.06,WeatherDisplay:10.37,2013-07-28 22:09:00,
2013-07-28 23:19:00,64.0,58.8,29.47,SSW,206,10.0,13.0,83,0.00,CLR,CLR,0.06,WeatherDisplay:10.37,2013-07-28 22:19:00,
2013-07-28 23:29:00,63.9,58.9,29.47,SSW,202,12.0,13.0,84,0.00,CLR,CLR,0.06,WeatherDisplay:10.37,2013-07-28 22:29:00,
2013-07-28 23:39:00,63.5,58.6,29.47,SSW,198,9.0,13.0,84,0.00,CLR,CLR,0.06,WeatherDisplay:10.37,2013-07-28 22:39:00,
2013-07-28 23:49:00,63.3,58.4,29.47,SSW,192,12.0,14.0,84,0.00,CLR,CLR,0.06,WeatherDisplay:10.37,2013-07-28 22:49:00,
2013-07-28 23:59:00,63.3,58.7,29.47,SSW,207,12.0,14.0,85,0.00,RA,RA,0.00,WeatherDisplay:10.37,2013-07-28 22:59:00,